Time;durP1;ratioP1;P1;durP2;ratioP2;P2;SDS_P1;SDS_P2;PMS_P1;PMS_P2;Temp;Humidity;BMP_temperature;BMP_pressure;BME280_temperature;BME280_humidity;BME280_pressure;Samples;Min_cycle;Max_cycle;Signal;HPM_P1;HPM_P2
2021/10/13 00:00:54;;;;;;;4.23;3.40;;;;;;;;;;5016959;28;20232;-86
2021/10/13 00:03:58;;;;;;;6.63;3.50;;;;;;;;;;5024525;28;20182;-86
2021/10/13 00:07:02;;;;;;;3.80;3.40;;;;;;;;;;5024977;28;20619;-86
2021/10/13 00:10:07;;;;;;;4.83;3.73;;;;;;;;;;5024832;28;20238;-86
2021/10/13 00:13:11;;;;;;;5.57;3.20;;;;;;;;;;5013319;28;20201;-86
2021/10/13 00:16:15;;;;;;;4.43;3.73;;;;;;;;;;5013529;28;20181;-86
2021/10/13 00:19:20;;;;;;;5.27;4.17;;;;;;;;;;5013447;28;20189;-85
2021/10/13 00:22:24;;;;;;;6.83;4.00;;;;;;;;;;5013286;28;20185;-86
2021/10/13 00:25:28;;;;;;;4.93;3.70;;;;;;;;;;5024818;28;20342;-86
2021/10/13 00:28:32;;;;;;;4.93;4.10;;;;;;;;;;5024826;28;20189;-86
2021/10/13 00:31:37;;;;;;;5.60;3.77;;;;;;;;;;5024417;28;20212;-86
2021/10/13 00:34:41;;;;;;;5.00;3.67;;;;;;;;;;5024664;28;20184;-86
2021/10/13 00:37:45;;;;;;;4.43;3.87;;;;;;;;;;5024648;28;20192;-86
2021/10/13 00:40:49;;;;;;;6.17;3.77;;;;;;;;;;5013050;28;20556;-86
2021/10/13 00:43:53;;;;;;;4.90;3.87;;;;;;;;;;5024297;28;20200;-85
2021/10/13 00:47:00;;;;;;;5.13;4.03;;;;;;;;;;5023854;28;20201;-85
2021/10/13 00:50:09;;;;;;;5.83;4.07;;;;;;;;;;5012832;28;20209;-86
2021/10/13 00:53:15;;;;;;;5.70;4.13;;;;;;;;;;5023886;28;20201;-85
2021/10/13 00:56:19;;;;;;;5.33;4.27;;;;;;;;;;5012645;28;20192;-85
2021/10/13 00:59:23;;;;;;;4.97;4.47;;;;;;;;;;5012468;28;20628;-86
2021/10/13 01:02:35;;;;;;;4.53;4.10;;;;;;;;;;5012170;28;20173;-86
2021/10/13 01:06:10;;;;;;;5.10;4.07;;;;;;;;;;5023040;28;20184;-85
2021/10/13 01:09:21;;;;;;;3.83;3.47;;;;;;;;;;5012035;28;20185;-86
2021/10/13 01:13:06;;;;;;;5.73;4.20;;;;;;;;;;5023548;28;20193;-85
2021/10/13 01:16:30;;;;;;;6.47;4.60;;;;;;;;;;5034593;28;20535;-85
2021/10/13 01:19:44;;;;;;;4.93;4.43;;;;;;;;;;5023629;28;20563;-85
2021/10/13 01:23:10;;;;;;;6.73;4.63;;;;;;;;;;5012187;28;20177;-85
2021/10/13 01:26:36;;;;;;;6.40;4.50;;;;;;;;;;5011719;28;20181;-86
2021/10/13 01:29:42;;;;;;;5.50;4.83;;;;;;;;;;5012220;28;20185;-85
2021/10/13 01:32:56;;;;;;;8.03;4.53;;;;;;;;;;5011636;28;20549;-85
2021/10/13 01:36:04;;;;;;;5.90;5.00;;;;;;;;;;5023275;28;20201;-86
2021/10/13 01:39:11;;;;;;;7.67;5.00;;;;;;;;;;5023032;28;20521;-86
2021/10/13 01:42:17;;;;;;;4.53;3.83;;;;;;;;;;5022762;28;20209;-85
2021/10/13 01:45:23;;;;;;;6.50;4.70;;;;;;;;;;5022902;28;20537;-85
2021/10/13 01:48:28;;;;;;;5.83;4.87;;;;;;;;;;5023137;28;20185;-86
2021/10/13 01:51:34;;;;;;;6.43;4.27;;;;;;;;;;5022882;28;20216;-86
2021/10/13 01:54:39;;;;;;;4.90;4.23;;;;;;;;;;5012023;28;20196;-85
2021/10/13 01:57:45;;;;;;;7.97;4.90;;;;;;;;;;5011295;28;20205;-85
2021/10/13 02:00:51;;;;;;;8.03;5.03;;;;;;;;;;5022236;28;20240;-85
2021/10/13 02:03:58;;;;;;;5.40;4.83;;;;;;;;;;5011474;28;20174;-85
2021/10/13 02:07:04;;;;;;;6.77;5.03;;;;;;;;;;5011396;28;20189;-85
2021/10/13 02:10:10;;;;;;;5.43;4.67;;;;;;;;;;5011314;28;20221;-85
2021/10/13 02:13:16;;;;;;;5.80;4.70;;;;;;;;;;5022634;28;20189;-86
2021/10/13 02:16:22;;;;;;;4.90;4.30;;;;;;;;;;5010331;28;20193;-86
2021/10/13 02:19:28;;;;;;;5.47;4.53;;;;;;;;;;5022256;28;20181;-86
2021/10/13 02:22:33;;;;;;;5.43;4.93;;;;;;;;;;5022089;28;20651;-85
2021/10/13 02:25:40;;;;;;;6.60;4.63;;;;;;;;;;5044964;28;20178;-85
2021/10/13 02:28:49;;;;;;;7.03;4.90;;;;;;;;;;5022030;28;20659;-85
2021/10/13 02:31:53;;;;;;;6.43;4.30;;;;;;;;;;5022021;28;20188;-86
2021/10/13 02:34:57;;;;;;;5.93;4.37;;;;;;;;;;5033737;28;20185;-85
2021/10/13 02:38:02;;;;;;;8.13;4.63;;;;;;;;;;5021898;28;20543;-86
2021/10/13 02:41:06;;;;;;;10.10;4.67;;;;;;;;;;5021691;28;20232;-86
2021/10/13 02:44:10;;;;;;;6.43;4.60;;;;;;;;;;5010855;28;20193;-85
2021/10/13 02:47:22;;;;;;;7.13;4.80;;;;;;;;;;5033171;28;20180;-85
2021/10/13 02:50:46;;;;;;;7.43;4.53;;;;;;;;;;5021836;28;20220;-85
2021/10/13 02:54:03;;;;;;;7.10;4.47;;;;;;;;;;5010526;28;20189;-86
2021/10/13 02:57:10;;;;;;;5.40;4.73;;;;;;;;;;5010646;28;20185;-86
2021/10/13 03:00:15;;;;;;;6.07;4.67;;;;;;;;;;5065978;22;20236;-85
2021/10/13 03:03:25;;;;;;;5.30;4.60;;;;;;;;;;5030280;28;20192;-85
2021/10/13 03:06:43;;;;;;;9.43;5.00;;;;;;;;;;5030539;28;20177;-85
2021/10/13 03:09:54;;;;;;;5.80;4.77;;;;;;;;;;5029939;28;20188;-86
2021/10/13 03:13:00;;;;;;;6.20;4.77;;;;;;;;;;5029944;28;20187;-86
2021/10/13 03:16:07;;;;;;;8.20;5.20;;;;;;;;;;5030066;28;20176;-86
2021/10/13 03:19:11;;;;;;;7.63;5.70;;;;;;;;;;5041807;28;20180;-85
2021/10/13 03:22:17;;;;;;;7.17;5.27;;;;;;;;;;5018594;28;20204;-86
2021/10/13 03:25:31;;;;;;;8.70;5.30;;;;;;;;;;5018850;28;20192;-85
2021/10/13 03:28:37;;;;;;;7.60;5.53;;;;;;;;;;5021746;28;20192;-88
2021/10/13 03:31:41;;;;;;;7.43;5.30;;;;;;;;;;5022183;28;20204;-85
2021/10/13 03:34:45;;;;;;;7.50;5.73;;;;;;;;;;5022910;28;20546;-86
2021/10/13 03:37:50;;;;;;;6.20;5.00;;;;;;;;;;5022894;28;20181;-88
2021/10/13 03:40:56;;;;;;;10.23;5.33;;;;;;;;;;5033609;28;20219;-85
2021/10/13 03:44:00;;;;;;;6.30;5.70;;;;;;;;;;5034023;28;20180;-87
2021/10/13 03:47:06;;;;;;;6.70;5.60;;;;;;;;;;5033782;28;20180;-86
2021/10/13 03:50:11;;;;;;;8.53;5.80;;;;;;;;;;5022332;28;20224;-85
2021/10/13 03:53:15;;;;;;;8.30;6.13;;;;;;;;;;5022344;28;20188;-85
2021/10/13 03:56:19;;;;;;;6.40;5.20;;;;;;;;;;5022674;28;20184;-88
2021/10/13 03:59:24;;;;;;;8.53;5.97;;;;;;;;;;5033974;28;20180;-86
2021/10/13 04:02:28;;;;;;;7.63;5.50;;;;;;;;;;5022769;28;20208;-85
2021/10/13 04:05:32;;;;;;;7.83;6.00;;;;;;;;;;5045701;28;20184;-87
2021/10/13 04:08:36;;;;;;;8.43;5.73;;;;;;;;;;5022464;28;20180;-87
2021/10/13 04:11:40;;;;;;;11.27;6.27;;;;;;;;;;5022296;28;20220;-88
2021/10/13 04:14:45;;;;;;;12.60;6.27;;;;;;;;;;5033754;28;20204;-86
2021/10/13 04:17:49;;;;;;;7.07;5.80;;;;;;;;;;5022773;28;20199;-87
2021/10/13 04:20:53;;;;;;;7.97;6.30;;;;;;;;;;5034708;28;20216;-86
2021/10/13 04:23:57;;;;;;;7.80;5.73;;;;;;;;;;5033499;28;20211;-86
2021/10/13 04:27:02;;;;;;;8.07;6.00;;;;;;;;;;5033304;28;20196;-85
2021/10/13 04:30:07;;;;;;;8.17;6.00;;;;;;;;;;5021810;28;20694;-86
2021/10/13 04:33:11;;;;;;;8.43;6.43;;;;;;;;;;5032682;28;20243;-87
2021/10/13 04:36:15;;;;;;;8.77;6.13;;;;;;;;;;5021938;28;20180;-88
2021/10/13 04:39:19;;;;;;;10.07;6.23;;;;;;;;;;5043122;28;20180;-85
2021/10/13 04:42:23;;;;;;;7.93;5.97;;;;;;;;;;5032779;28;20212;-85
2021/10/13 04:45:27;;;;;;;9.40;6.63;;;;;;;;;;5021673;28;20188;-88
2021/10/13 04:48:31;;;;;;;6.93;5.13;;;;;;;;;;5043759;28;20184;-88
2021/10/13 04:51:36;;;;;;;7.33;5.50;;;;;;;;;;5021492;28;20594;-85
2021/10/13 04:54:39;;;;;;;6.90;5.67;;;;;;;;;;5032687;28;20188;-88
2021/10/13 04:57:43;;;;;;;8.67;5.80;;;;;;;;;;5020982;28;20524;-85
2021/10/13 05:00:47;;;;;;;7.73;6.07;;;;;;;;;;5032135;28;20231;-88
2021/10/13 05:03:52;;;;;;;10.23;6.27;;;;;;;;;;5021064;28;20631;-88
2021/10/13 05:06:56;;;;;;;9.30;6.33;;;;;;;;;;5021414;28;20180;-87
2021/10/13 05:10:00;;;;;;;7.73;6.07;;;;;;;;;;5032480;28;20183;-88
2021/10/13 05:13:05;;;;;;;8.97;6.20;;;;;;;;;;5032219;28;20181;-88
2021/10/13 05:16:09;;;;;;;9.93;7.00;;;;;;;;;;5032055;28;20192;-88
2021/10/13 05:19:13;;;;;;;13.40;6.70;;;;;;;;;;5021034;28;20180;-88
2021/10/13 05:22:17;;;;;;;10.20;6.80;;;;;;;;;;5031899;28;20216;-87
2021/10/13 05:25:21;;;;;;;9.27;7.10;;;;;;;;;;5043327;28;20646;-88
2021/10/13 05:28:25;;;;;;;10.70;7.27;;;;;;;;;;5020861;28;20181;-88
2021/10/13 05:31:29;;;;;;;10.23;6.67;;;;;;;;;;5020009;28;20219;-88
2021/10/13 05:34:33;;;;;;;9.53;6.87;;;;;;;;;;5020305;28;20176;-88
2021/10/13 05:37:37;;;;;;;9.53;6.70;;;;;;;;;;5021039;28;20184;-88
2021/10/13 05:40:41;;;;;;;13.20;10.17;;;;;;;;;;5020213;28;20219;-88
2021/10/13 05:43:45;;;;;;;13.80;10.60;;;;;;;;;;5042952;28;20176;-88
2021/10/13 05:46:49;;;;;;;11.07;8.43;;;;;;;;;;5042925;28;20200;-88
2021/10/13 05:49:53;;;;;;;11.50;8.00;;;;;;;;;;5019919;28;20204;-87
2021/10/13 05:52:57;;;;;;;8.53;7.30;;;;;;;;;;5031317;28;20682;-88
2021/10/13 05:56:02;;;;;;;9.20;7.13;;;;;;;;;;5031477;28;20658;-88
2021/10/13 05:59:06;;;;;;;11.90;8.23;;;;;;;;;;5019706;28;20200;-88
2021/10/13 06:02:12;;;;;;;9.10;6.90;;;;;;;;;;5020418;28;20232;-88
2021/10/13 06:05:16;;;;;;;11.07;7.27;;;;;;;;;;5031403;28;20191;-88
2021/10/13 06:08:21;;;;;;;10.07;7.40;;;;;;;;;;5019442;28;20536;-88
2021/10/13 06:11:25;;;;;;;9.93;8.03;;;;;;;;;;5019724;28;20220;-88
2021/10/13 06:14:29;;;;;;;10.47;7.80;;;;;;;;;;5019660;28;20184;-88
2021/10/13 06:17:34;;;;;;;10.57;8.33;;;;;;;;;;5030717;28;20180;-88
2021/10/13 06:20:38;;;;;;;8.90;7.30;;;;;;;;;;5019397;28;20563;-88
2021/10/13 06:23:42;;;;;;;9.77;7.10;;;;;;;;;;5019364;28;20662;-88
2021/10/13 06:26:46;;;;;;;9.73;7.57;;;;;;;;;;5030720;28;20179;-87
2021/10/13 06:29:50;;;;;;;11.03;7.67;;;;;;;;;;5030579;28;20184;-88
2021/10/13 06:32:55;;;;;;;9.13;7.73;;;;;;;;;;5019399;28;20176;-87
2021/10/13 06:36:00;;;;;;;9.80;7.40;;;;;;;;;;5030841;28;20628;-87
2021/10/13 06:39:04;;;;;;;8.10;7.20;;;;;;;;;;5030524;28;20188;-88
2021/10/13 06:42:08;;;;;;;9.33;6.93;;;;;;;;;;5019414;28;20211;-88
2021/10/13 06:45:12;;;;;;;10.27;8.20;;;;;;;;;;5030045;28;20204;-88
2021/10/13 06:48:18;;;;;;;11.90;7.83;;;;;;;;;;5018756;28;20200;-88
2021/10/13 06:51:22;;;;;;;10.70;8.20;;;;;;;;;;5019093;28;20224;-88
2021/10/13 06:54:26;;;;;;;11.40;7.07;;;;;;;;;;5030045;28;20184;-88
2021/10/13 06:57:30;;;;;;;9.93;6.33;;;;;;;;;;5019392;28;20184;-88
2021/10/13 07:00:34;;;;;;;8.00;6.73;;;;;;;;;;5030068;28;20601;-88
2021/10/13 07:03:38;;;;;;;8.73;6.60;;;;;;;;;;5040777;28;20586;-88
2021/10/13 07:06:43;;;;;;;9.17;6.93;;;;;;;;;;5030446;28;20184;-88
2021/10/13 07:09:47;;;;;;;9.93;7.17;;;;;;;;;;5029959;28;20184;-88
2021/10/13 07:12:51;;;;;;;7.10;6.13;;;;;;;;;;5030009;28;20176;-88
2021/10/13 07:15:55;;;;;;;8.23;6.63;;;;;;;;;;5018942;28;20180;-88
2021/10/13 07:18:59;;;;;;;10.80;6.83;;;;;;;;;;5018800;28;20184;-88
2021/10/13 07:22:04;;;;;;;7.30;5.67;;;;;;;;;;5029628;28;20232;-88
2021/10/13 07:25:09;;;;;;;10.10;7.90;;;;;;;;;;5018714;28;20526;-88
2021/10/13 07:28:13;;;;;;;11.50;6.60;;;;;;;;;;5018642;28;20188;-88
2021/10/13 07:31:17;;;;;;;10.77;6.37;;;;;;;;;;5018703;28;20220;-88
2021/10/13 07:34:22;;;;;;;9.43;6.57;;;;;;;;;;5018387;28;20180;-88
2021/10/13 07:37:27;;;;;;;8.73;6.47;;;;;;;;;;5018592;28;20180;-88
2021/10/13 07:40:32;;;;;;;12.67;8.33;;;;;;;;;;5029615;28;20220;-88
2021/10/13 07:43:36;;;;;;;10.90;8.23;;;;;;;;;;5029440;28;20212;-88
2021/10/13 07:46:40;;;;;;;9.27;6.57;;;;;;;;;;5018110;28;20199;-88
2021/10/13 07:49:44;;;;;;;8.80;6.13;;;;;;;;;;5029709;28;20192;-88
2021/10/13 07:52:49;;;;;;;10.47;8.20;;;;;;;;;;5041081;28;20184;-88
2021/10/13 07:55:53;;;;;;;8.53;7.30;;;;;;;;;;5018451;28;20631;-88
2021/10/13 07:58:57;;;;;;;8.37;6.70;;;;;;;;;;5030089;28;20184;-88
2021/10/13 08:02:03;;;;;;;10.03;5.47;;;;;;;;;;5020810;28;20228;-87
2021/10/13 08:05:07;;;;;;;6.37;4.93;;;;;;;;;;5009769;28;20177;-87
2021/10/13 08:08:11;;;;;;;8.43;5.77;;;;;;;;;;5020900;28;20189;-88
2021/10/13 08:11:16;;;;;;;8.40;5.30;;;;;;;;;;5021033;28;20675;-88
2021/10/13 08:14:20;;;;;;;8.67;5.57;;;;;;;;;;5012405;28;20181;-87
2021/10/13 08:17:24;;;;;;;8.97;5.43;;;;;;;;;;5024388;28;20181;-87
2021/10/13 08:20:28;;;;;;;7.03;5.93;;;;;;;;;;5013307;28;20220;-87
2021/10/13 08:23:32;;;;;;;8.70;5.97;;;;;;;;;;5013209;28;20217;-87
2021/10/13 08:26:36;;;;;;;7.93;6.47;;;;;;;;;;5013147;28;20196;-87
2021/10/13 08:29:40;;;;;;;7.43;5.77;;;;;;;;;;5013150;28;20188;-88
2021/10/13 08:32:44;;;;;;;6.70;5.70;;;;;;;;;;5024378;28;20189;-88
2021/10/13 08:35:48;;;;;;;7.37;5.47;;;;;;;;;;5013421;28;20185;-87
2021/10/13 08:38:53;;;;;;;8.33;5.57;;;;;;;;;;5013007;28;20185;-87
2021/10/13 08:41:57;;;;;;;6.70;5.63;;;;;;;;;;5024246;28;20220;-88
2021/10/13 08:45:02;;;;;;;7.80;5.43;;;;;;;;;;5012933;28;20635;-88
2021/10/13 08:48:07;;;;;;;8.47;5.43;;;;;;;;;;5012587;28;20193;-88
2021/10/13 08:51:11;;;;;;;6.23;5.03;;;;;;;;;;5023997;28;20675;-87
2021/10/13 08:54:17;;;;;;;6.70;5.30;;;;;;;;;;5012807;28;20181;-87
2021/10/13 08:57:23;;;;;;;7.10;5.53;;;;;;;;;;5012564;28;20188;-88
2021/10/13 09:00:29;;;;;;;9.43;5.63;;;;;;;;;;5018454;28;20219;-87
2021/10/13 09:03:41;;;;;;;7.37;5.97;;;;;;;;;;5032075;28;20212;-86
2021/10/13 09:06:45;;;;;;;6.40;5.57;;;;;;;;;;5032205;28;20189;-86
2021/10/13 09:09:49;;;;;;;6.97;5.90;;;;;;;;;;5020801;28;20200;-86
2021/10/13 09:12:53;;;;;;;8.07;5.33;;;;;;;;;;5021091;28;20196;-86
2021/10/13 09:15:57;;;;;;;7.77;5.30;;;;;;;;;;5043642;28;20667;-86
2021/10/13 09:19:02;;;;;;;7.23;5.10;;;;;;;;;;5031961;28;20180;-86
2021/10/13 09:22:13;;;;;;;5.77;5.00;;;;;;;;;;5020753;28;20578;-86
2021/10/13 09:25:17;;;;;;;8.67;6.03;;;;;;;;;;5043053;28;20635;-86
2021/10/13 09:28:21;;;;;;;7.70;6.73;;;;;;;;;;5020768;28;20206;-86
2021/10/13 09:31:29;;;;;;;11.80;7.60;;;;;;;;;;5020524;28;20212;-86
2021/10/13 09:34:32;;;;;;;9.13;8.13;;;;;;;;;;5020574;28;20173;-86
2021/10/13 09:37:44;;;;;;;9.73;7.47;;;;;;;;;;5043071;28;20180;-86
2021/10/13 09:40:50;;;;;;;7.97;6.67;;;;;;;;;;5031614;28;20216;-86
2021/10/13 09:43:54;;;;;;;6.40;5.40;;;;;;;;;;5031178;28;20220;-86
2021/10/13 09:47:01;;;;;;;8.20;6.47;;;;;;;;;;5043000;28;20635;-86
2021/10/13 09:50:10;;;;;;;7.70;5.57;;;;;;;;;;5020254;28;20574;-86
2021/10/13 09:53:22;;;;;;;7.17;4.90;;;;;;;;;;5042980;28;20176;-86
2021/10/13 09:56:37;;;;;;;5.03;4.43;;;;;;;;;;5020665;28;20620;-86
2021/10/13 10:00:08;;;;;;;7.10;4.50;;;;;;;;;;5020230;28;20196;-87
2021/10/13 10:03:13;;;;;;;5.43;4.30;;;;;;;;;;5015207;28;20212;-86
2021/10/13 10:06:18;;;;;;;4.63;3.20;;;;;;;;;;5031226;28;20184;-86
2021/10/13 10:09:26;;;;;;;4.93;3.50;;;;;;;;;;5029888;28;20184;-86
2021/10/13 10:12:56;;;;;;;5.23;3.43;;;;;;;;;;5031154;28;20211;-85
2021/10/13 10:16:00;;;;;;;4.80;3.37;;;;;;;;;;5041323;28;20344;-86
2021/10/13 10:19:20;;;;;;;6.63;4.07;;;;;;;;;;5021376;28;20192;-86
2021/10/13 10:22:24;;;;;;;9.57;5.80;;;;;;;;;;5030803;28;20189;-86
2021/10/13 10:25:36;;;;;;;6.03;4.57;;;;;;;;;;4999837;28;20180;-86
2021/10/13 10:28:49;;;;;;;3.43;3.00;;;;;;;;;;5020898;28;20204;-86
2021/10/13 10:31:57;;;;;;;4.47;3.20;;;;;;;;;;4999915;28;20220;-86
2021/10/13 10:35:04;;;;;;;5.57;2.97;;;;;;;;;;5014544;28;20188;-86
2021/10/13 10:38:10;;;;;;;6.00;3.43;;;;;;;;;;5029139;28;20184;-85
2021/10/13 10:41:14;;;;;;;5.60;3.40;;;;;;;;;;5030175;28;20220;-86
2021/10/13 10:44:32;;;;;;;4.13;3.30;;;;;;;;;;5036033;28;20216;-86
2021/10/13 10:47:56;;;;;;;4.00;3.20;;;;;;;;;;5030617;28;20188;-86
2021/10/13 10:51:01;;;;;;;7.17;3.50;;;;;;;;;;5021183;28;20220;-87
2021/10/13 10:54:31;;;;;;;5.17;4.17;;;;;;;;;;5011332;28;20521;-86
2021/10/13 10:57:47;;;;;;;6.40;4.17;;;;;;;;;;5018818;28;20193;-86
2021/10/13 11:01:12;;;;;;;7.10;4.10;;;;;;;;;;4990624;28;20237;-86
2021/10/13 11:04:16;;;;;;;5.57;4.07;;;;;;;;;;5009545;28;20217;-86
2021/10/13 11:07:21;;;;;;;7.17;3.80;;;;;;;;;;5020769;28;20197;-86
2021/10/13 11:10:26;;;;;;;6.83;4.10;;;;;;;;;;5021491;28;20217;-86
2021/10/13 11:13:30;;;;;;;6.47;4.70;;;;;;;;;;4998156;28;20193;-86
2021/10/13 11:16:37;;;;;;;5.53;3.67;;;;;;;;;;5019240;28;20185;-86
2021/10/13 11:19:43;;;;;;;6.57;4.07;;;;;;;;;;5009393;28;20193;-86
2021/10/13 11:23:02;;;;;;;4.97;3.83;;;;;;;;;;5021119;28;20193;-86
2021/10/13 11:26:06;;;;;;;13.00;8.17;;;;;;;;;;5021565;28;20193;-86
2021/10/13 11:29:21;;;;;;;7.27;4.60;;;;;;;;;;5021767;28;20185;-86
2021/10/13 11:32:25;;;;;;;12.40;7.70;;;;;;;;;;5001997;28;20538;-86
2021/10/13 11:35:29;;;;;;;4.23;3.00;;;;;;;;;;5005833;28;20185;-86
2021/10/13 11:38:37;;;;;;;2.83;1.60;;;;;;;;;;5032569;28;20197;-86
2021/10/13 11:41:42;;;;;;;1.57;1.17;;;;;;;;;;5013454;28;20229;-86
2021/10/13 11:44:50;;;;;;;1.33;0.70;;;;;;;;;;5029110;28;20217;-86
2021/10/13 11:47:58;;;;;;;1.03;0.70;;;;;;;;;;5016771;28;20201;-86
2021/10/13 11:51:10;;;;;;;1.00;0.73;;;;;;;;;;4994169;28;20225;-86
2021/10/13 11:54:25;;;;;;;2.83;0.70;;;;;;;;;;5003488;28;20609;-86
2021/10/13 11:57:29;;;;;;;0.93;0.80;;;;;;;;;;5005441;28;20513;-86
2021/10/13 12:00:45;;;;;;;1.03;0.80;;;;;;;;;;5027217;28;20232;-87
2021/10/13 12:03:49;;;;;;;0.90;0.50;;;;;;;;;;5017085;28;20212;-86
2021/10/13 12:06:53;;;;;;;4.77;2.60;;;;;;;;;;5023760;28;20188;-86
2021/10/13 12:10:00;;;;;;;2.73;0.70;;;;;;;;;;5032469;28;20188;-88
2021/10/13 12:13:08;;;;;;;2.57;1.00;;;;;;;;;;5037833;28;20197;-88
2021/10/13 12:16:18;;;;;;;3.03;1.10;;;;;;;;;;5015482;28;20193;-88
2021/10/13 12:19:22;;;;;;;1.27;0.80;;;;;;;;;;5012878;28;20201;-88
2021/10/13 12:22:43;;;;;;;4.47;1.10;;;;;;;;;;5013506;28;20185;-88
2021/10/13 12:25:48;;;;;;;1.30;0.97;;;;;;;;;;5002064;28;20173;-88
2021/10/13 12:28:57;;;;;;;2.87;1.27;;;;;;;;;;5013378;28;20624;-88
2021/10/13 12:32:14;;;;;;;2.73;1.03;;;;;;;;;;5009852;28;20572;-87
2021/10/13 12:35:19;;;;;;;1.57;1.20;;;;;;;;;;5031036;28;20659;-87
2021/10/13 12:38:23;;;;;;;1.80;1.00;;;;;;;;;;5044024;28;20642;-88
2021/10/13 12:41:43;;;;;;;1.40;1.00;;;;;;;;;;5023342;28;20216;-88
2021/10/13 12:44:47;;;;;;;2.83;1.50;;;;;;;;;;5021227;28;20208;-88
2021/10/13 12:48:11;;;;;;;2.27;1.00;;;;;;;;;;5021214;28;20188;-88
2021/10/13 12:51:16;;;;;;;3.43;1.67;;;;;;;;;;5032735;28;20220;-88
2021/10/13 12:54:21;;;;;;;2.70;1.10;;;;;;;;;;5014402;28;20192;-88
2021/10/13 12:57:30;;;;;;;2.50;1.10;;;;;;;;;;5014465;28;20195;-88
2021/10/13 13:00:34;;;;;;;1.77;1.43;;;;;;;;;;5042674;28;20228;-88
2021/10/13 13:03:57;;;;;;;4.50;1.40;;;;;;;;;;5037603;28;20682;-89
2021/10/13 13:07:04;;;;;;;1.40;0.90;;;;;;;;;;5020678;28;20631;-88
2021/10/13 13:10:08;;;;;;;2.07;0.93;;;;;;;;;;5004510;28;20228;-88
2021/10/13 13:13:12;;;;;;;3.20;1.80;;;;;;;;;;5011787;28;20213;-88
2021/10/13 13:16:17;;;;;;;1.43;1.00;;;;;;;;;;5031745;28;20200;-88
2021/10/13 13:19:21;;;;;;;1.13;1.00;;;;;;;;;;5030952;28;20200;-87
2021/10/13 13:22:26;;;;;;;1.60;1.20;;;;;;;;;;5025520;28;20196;-87
2021/10/13 13:25:30;;;;;;;1.93;1.40;;;;;;;;;;5031904;28;20203;-87
2021/10/13 13:28:34;;;;;;;2.03;1.70;;;;;;;;;;5042919;28;20192;-87
2021/10/13 13:31:38;;;;;;;1.30;1.20;;;;;;;;;;5020115;28;20219;-87
2021/10/13 13:34:42;;;;;;;1.93;1.43;;;;;;;;;;5032003;28;20180;-87
2021/10/13 13:37:46;;;;;;;1.40;1.20;;;;;;;;;;5012131;28;20209;-87
2021/10/13 13:40:53;;;;;;;4.70;1.47;;;;;;;;;;5014074;28;20221;-87
2021/10/13 13:43:57;;;;;;;1.90;1.10;;;;;;;;;;5019751;28;20220;-87
2021/10/13 13:47:01;;;;;;;1.53;0.77;;;;;;;;;;5021720;28;20185;-87
2021/10/13 13:50:07;;;;;;;1.37;0.77;;;;;;;;;;5011126;28;20229;-87
2021/10/13 13:53:11;;;;;;;1.57;0.90;;;;;;;;;;5028243;28;20188;-87
2021/10/13 13:56:15;;;;;;;1.53;0.90;;;;;;;;;;5031491;28;20508;-87
2021/10/13 13:59:25;;;;;;;1.23;0.60;;;;;;;;;;5030509;28;20195;-88
2021/10/13 14:02:29;;;;;;;1.77;0.90;;;;;;;;;;5030921;28;20192;-87
2021/10/13 14:05:33;;;;;;;2.20;0.90;;;;;;;;;;5010744;28;20560;-87
2021/10/13 14:08:38;;;;;;;1.00;0.70;;;;;;;;;;5011138;28;20197;-87
2021/10/13 14:11:43;;;;;;;1.30;0.60;;;;;;;;;;5011392;28;20694;-87
2021/10/13 14:14:47;;;;;;;1.57;0.70;;;;;;;;;;5011145;28;20181;-88
2021/10/13 14:17:54;;;;;;;1.73;0.90;;;;;;;;;;5022419;28;20623;-88
2021/10/13 14:21:01;;;;;;;1.83;0.80;;;;;;;;;;5011189;28;20220;-88
2021/10/13 14:24:05;;;;;;;1.47;1.00;;;;;;;;;;4999580;28;20201;-88
2021/10/13 14:27:09;;;;;;;2.73;0.97;;;;;;;;;;5010948;28;20524;-88
2021/10/13 14:30:13;;;;;;;1.93;0.90;;;;;;;;;;5021388;22;20231;-71
2021/10/13 14:33:17;;;;;;;1.80;1.10;;;;;;;;;;5041870;28;20184;-71
2021/10/13 14:36:22;;;;;;;1.60;1.17;;;;;;;;;;5053788;28;20627;-71
2021/10/13 14:39:26;;;;;;;1.03;0.60;;;;;;;;;;5053399;28;20555;-71
2021/10/13 14:42:30;;;;;;;2.17;1.00;;;;;;;;;;5053785;28;20184;-71
2021/10/13 14:45:34;;;;;;;2.23;0.90;;;;;;;;;;5053313;28;20211;-71
2021/10/13 14:48:39;;;;;;;0.90;0.80;;;;;;;;;;5041535;28;20188;-71
2021/10/13 14:51:44;;;;;;;1.73;0.80;;;;;;;;;;5054121;28;20184;-71
2021/10/13 14:54:48;;;;;;;2.07;0.83;;;;;;;;;;5053263;28;20181;-71
2021/10/13 14:57:52;;;;;;;1.77;0.87;;;;;;;;;;5053168;28;20530;-71
2021/10/13 15:00:56;;;;;;;1.93;0.80;;;;;;;;;;5053541;28;20180;-71
2021/10/13 15:04:01;;;;;;;1.77;0.90;;;;;;;;;;5053895;28;20520;-71
2021/10/13 15:07:05;;;;;;;2.90;0.90;;;;;;;;;;5053368;28;20188;-71
2021/10/13 15:10:10;;;;;;;2.27;1.00;;;;;;;;;;5053056;28;20227;-71
2021/10/13 15:13:14;;;;;;;1.13;1.03;;;;;;;;;;5053180;28;20196;-71
2021/10/13 15:16:18;;;;;;;2.17;1.00;;;;;;;;;;5051986;28;20208;-71
2021/10/13 15:19:23;;;;;;;1.20;1.00;;;;;;;;;;5052575;28;20227;-75
2021/10/13 15:22:27;;;;;;;2.90;1.90;;;;;;;;;;5050927;28;20196;-75
2021/10/13 15:25:31;;;;;;;4.13;1.70;;;;;;;;;;5041719;28;20686;-76
2021/10/13 15:28:35;;;;;;;2.07;1.43;;;;;;;;;;5010495;28;20284;-76
2021/10/13 15:31:39;;;;;;;3.53;1.10;;;;;;;;;;5030600;28;20216;-76
2021/10/13 15:34:43;;;;;;;3.00;1.07;;;;;;;;;;5033544;28;20513;-76
2021/10/13 15:37:47;;;;;;;2.07;0.93;;;;;;;;;;5033776;28;20204;-76
2021/10/13 15:40:51;;;;;;;1.00;0.87;;;;;;;;;;5032185;28;20220;-76
2021/10/13 15:43:55;;;;;;;8.53;6.07;;;;;;;;;;5032728;28;20210;-75
2021/10/13 15:46:59;;;;;;;8.93;8.23;;;;;;;;;;5031800;28;20200;-75
2021/10/13 15:50:06;;;;;;;3.37;3.07;;;;;;;;;;5032069;28;20228;-76
2021/10/13 15:53:10;;;;;;;1.47;1.37;;;;;;;;;;5032239;28;20192;-76
2021/10/13 15:56:14;;;;;;;1.20;1.10;;;;;;;;;;5032838;28;20184;-76
2021/10/13 15:59:18;;;;;;;1.30;1.03;;;;;;;;;;5031719;28;20698;-76
2021/10/13 16:02:23;;;;;;;1.83;0.90;;;;;;;;;;5032580;28;20188;-76
2021/10/13 16:05:27;;;;;;;1.00;0.90;;;;;;;;;;5020886;28;20212;-76
2021/10/13 16:08:31;;;;;;;2.20;1.07;;;;;;;;;;5031598;28;20197;-76
2021/10/13 16:11:36;;;;;;;1.77;1.10;;;;;;;;;;5032247;28;20204;-76
2021/10/13 16:14:40;;;;;;;2.83;1.00;;;;;;;;;;5031662;28;20197;-75
2021/10/13 16:17:45;;;;;;;1.07;0.80;;;;;;;;;;5031574;28;20200;-75
2021/10/13 16:20:49;;;;;;;2.43;1.30;;;;;;;;;;5031910;28;20217;-76
2021/10/13 16:23:53;;;;;;;1.97;1.43;;;;;;;;;;5031645;28;20637;-76
2021/10/13 16:26:58;;;;;;;1.73;1.13;;;;;;;;;;5032233;28;20181;-76
2021/10/13 16:30:04;;;;;;;3.07;1.40;;;;;;;;;;5034529;28;20224;-76
2021/10/13 16:33:09;;;;;;;3.70;2.53;;;;;;;;;;5039703;28;20204;-76
2021/10/13 16:36:13;;;;;;;2.00;1.80;;;;;;;;;;5050447;28;20203;-76
2021/10/13 16:39:17;;;;;;;2.13;1.30;;;;;;;;;;5038973;28;20232;-76
2021/10/13 16:42:22;;;;;;;1.20;0.90;;;;;;;;;;5039752;28;20184;-76
2021/10/13 16:45:26;;;;;;;2.20;0.93;;;;;;;;;;5049690;28;20586;-76
2021/10/13 16:48:31;;;;;;;1.20;1.10;;;;;;;;;;5045384;28;20209;-76
2021/10/13 16:51:35;;;;;;;1.30;1.10;;;;;;;;;;5021256;28;20181;-76
2021/10/13 16:54:39;;;;;;;1.97;1.27;;;;;;;;;;5033157;28;20181;-76
2021/10/13 16:57:43;;;;;;;1.20;1.00;;;;;;;;;;5020490;28;20181;-75
2021/10/13 17:00:49;;;;;;;2.47;1.43;;;;;;;;;;5049632;28;20232;-76
2021/10/13 17:03:53;;;;;;;3.40;1.83;;;;;;;;;;5051960;28;20200;-75
2021/10/13 17:06:57;;;;;;;1.67;1.20;;;;;;;;;;5029254;28;20220;-76
2021/10/13 17:10:05;;;;;;;1.20;1.10;;;;;;;;;;5038731;28;20552;-75
2021/10/13 17:13:10;;;;;;;1.77;1.00;;;;;;;;;;5051426;28;20571;-76
2021/10/13 17:16:15;;;;;;;3.53;1.97;;;;;;;;;;5051393;28;20184;-75
2021/10/13 17:19:19;;;;;;;2.53;1.20;;;;;;;;;;5051139;28;20224;-77
2021/10/13 17:22:27;;;;;;;2.07;1.30;;;;;;;;;;5050968;28;20639;-76
2021/10/13 17:25:33;;;;;;;2.40;1.13;;;;;;;;;;5038840;28;20216;-76
2021/10/13 17:28:37;;;;;;;1.77;1.33;;;;;;;;;;5051482;28;20200;-77
2021/10/13 17:31:41;;;;;;;2.97;1.30;;;;;;;;;;5051011;28;20693;-76
2021/10/13 17:34:48;;;;;;;2.27;1.47;;;;;;;;;;5042222;28;20650;-76
2021/10/13 17:37:53;;;;;;;3.67;1.80;;;;;;;;;;5018709;28;20185;-76
2021/10/13 17:40:57;;;;;;;1.80;1.60;;;;;;;;;;5030939;28;20185;-76
2021/10/13 17:44:02;;;;;;;1.80;1.40;;;;;;;;;;5030949;28;20648;-76
2021/10/13 17:47:07;;;;;;;2.37;1.87;;;;;;;;;;5030899;28;20212;-76
2021/10/13 17:50:12;;;;;;;1.53;1.43;;;;;;;;;;5050451;28;20698;-76
2021/10/13 17:53:17;;;;;;;1.87;1.27;;;;;;;;;;5050288;28;20192;-76
2021/10/13 17:56:21;;;;;;;2.13;1.70;;;;;;;;;;5050372;28;20184;-76
2021/10/13 17:59:25;;;;;;;2.43;1.60;;;;;;;;;;5022643;28;20484;-76
2021/10/13 18:02:29;;;;;;;5.20;1.80;;;;;;;;;;5030434;28;20185;-76
2021/10/13 18:05:33;;;;;;;1.90;1.70;;;;;;;;;;5035600;28;20551;-76
2021/10/13 18:08:38;;;;;;;3.10;1.80;;;;;;;;;;5019576;28;20192;-76
2021/10/13 18:11:42;;;;;;;1.70;1.60;;;;;;;;;;5049840;28;20188;-76
2021/10/13 18:14:46;;;;;;;2.83;1.90;;;;;;;;;;5050408;28;20188;-76
2021/10/13 18:17:50;;;;;;;3.10;2.20;;;;;;;;;;5049982;28;20193;-76
2021/10/13 18:20:54;;;;;;;2.40;2.20;;;;;;;;;;5037989;28;20192;-76
2021/10/13 18:23:59;;;;;;;3.07;2.20;;;;;;;;;;5036732;28;20663;-76
2021/10/13 18:27:05;;;;;;;3.67;2.50;;;;;;;;;;5037477;28;20212;-76
2021/10/13 18:30:10;;;;;;;2.67;2.20;;;;;;;;;;5049634;28;20235;-76
2021/10/13 18:33:14;;;;;;;3.70;2.53;;;;;;;;;;5037436;28;20188;-76